sensor_id;sensor_type;location;lat;lon;timestamp;P1;durP1;ratioP1;P2;durP2;ratioP2
1328;SDS011;658;48.820;9.354;2022-08-21T00:02:34;2.87;;;2.67;;
1328;SDS011;658;48.820;9.354;2022-08-21T00:06:35;2.83;;;2.20;;
1328;SDS011;658;48.820;9.354;2022-08-21T00:10:38;3.40;;;2.40;;
1328;SDS011;658;48.820;9.354;2022-08-21T00:14:40;3.07;;;2.87;;
1328;SDS011;658;48.820;9.354;2022-08-21T00:18:41;3.00;;;2.80;;
1328;SDS011;658;48.820;9.354;2022-08-21T00:22:42;2.80;;;2.60;;
1328;SDS011;658;48.820;9.354;2022-08-21T00:26:43;7.17;;;2.60;;
1328;SDS011;658;48.820;9.354;2022-08-21T00:30:43;3.13;;;2.20;;
1328;SDS011;658;48.820;9.354;2022-08-21T00:34:44;2.90;;;2.70;;
1328;SDS011;658;48.820;9.354;2022-08-21T00:38:45;3.07;;;2.87;;
1328;SDS011;658;48.820;9.354;2022-08-21T00:42:46;2.40;;;2.20;;
1328;SDS011;658;48.820;9.354;2022-08-21T00:46:47;2.53;;;2.33;;
1328;SDS011;658;48.820;9.354;2022-08-21T00:55:25;2.83;;;2.63;;
1328;SDS011;658;48.820;9.354;2022-08-21T00:59:29;2.90;;;2.60;;
1328;SDS011;658;48.820;9.354;2022-08-21T01:03:34;2.87;;;2.67;;
1328;SDS011;658;48.820;9.354;2022-08-21T01:07:36;2.60;;;2.20;;
1328;SDS011;658;48.820;9.354;2022-08-21T01:11:37;4.03;;;2.50;;
1328;SDS011;658;48.820;9.354;2022-08-21T01:15:40;2.80;;;2.50;;
1328;SDS011;658;48.820;9.354;2022-08-21T01:19:44;2.40;;;2.30;;
1328;SDS011;658;48.820;9.354;2022-08-21T01:23:46;2.80;;;2.60;;
1328;SDS011;658;48.820;9.354;2022-08-21T01:27:48;2.63;;;2.43;;
1328;SDS011;658;48.820;9.354;2022-08-21T01:31:49;2.47;;;2.27;;
1328;SDS011;658;48.820;9.354;2022-08-21T01:35:50;2.97;;;2.20;;
1328;SDS011;658;48.820;9.354;2022-08-21T01:39:51;2.40;;;2.20;;
1328;SDS011;658;48.820;9.354;2022-08-21T01:43:51;3.93;;;2.50;;
1328;SDS011;658;48.820;9.354;2022-08-21T01:47:52;2.70;;;2.50;;
1328;SDS011;658;48.820;9.354;2022-08-21T01:51:52;2.37;;;2.17;;
1328;SDS011;658;48.820;9.354;2022-08-21T01:55:53;2.47;;;2.37;;
1328;SDS011;658;48.820;9.354;2022-08-21T01:59:54;2.60;;;2.40;;
1328;SDS011;658;48.820;9.354;2022-08-21T02:03:55;2.30;;;2.20;;
1328;SDS011;658;48.820;9.354;2022-08-21T02:07:56;2.00;;;1.87;;
1328;SDS011;658;48.820;9.354;2022-08-21T02:11:56;2.43;;;2.23;;
1328;SDS011;658;48.820;9.354;2022-08-21T02:15:57;2.13;;;2.03;;
1328;SDS011;658;48.820;9.354;2022-08-21T02:19:57;2.10;;;2.00;;
1328;SDS011;658;48.820;9.354;2022-08-21T02:23:58;2.23;;;2.13;;
1328;SDS011;658;48.820;9.354;2022-08-21T02:27:59;2.70;;;2.50;;
1328;SDS011;658;48.820;9.354;2022-08-21T02:32:04;2.37;;;2.27;;
1328;SDS011;658;48.820;9.354;2022-08-21T02:36:05;3.13;;;2.83;;
1328;SDS011;658;48.820;9.354;2022-08-21T02:40:06;2.30;;;2.20;;
1328;SDS011;658;48.820;9.354;2022-08-21T02:44:09;2.47;;;2.30;;
1328;SDS011;658;48.820;9.354;2022-08-21T02:48:10;2.30;;;2.10;;
1328;SDS011;658;48.820;9.354;2022-08-21T02:52:13;2.60;;;2.40;;
1328;SDS011;658;48.820;9.354;2022-08-21T02:56:15;2.20;;;2.00;;
1328;SDS011;658;48.820;9.354;2022-08-21T03:00:19;2.80;;;2.03;;
1328;SDS011;658;48.820;9.354;2022-08-21T03:04:20;2.33;;;2.17;;
1328;SDS011;658;48.820;9.354;2022-08-21T03:08:22;2.10;;;2.00;;
1328;SDS011;658;48.820;9.354;2022-08-21T03:12:23;2.20;;;2.10;;
1328;SDS011;658;48.820;9.354;2022-08-21T03:16:24;2.10;;;2.00;;
1328;SDS011;658;48.820;9.354;2022-08-21T03:20:25;2.80;;;2.20;;
1328;SDS011;658;48.820;9.354;2022-08-21T03:24:28;2.90;;;2.40;;
1328;SDS011;658;48.820;9.354;2022-08-21T03:28:29;2.30;;;2.20;;
1328;SDS011;658;48.820;9.354;2022-08-21T03:32:29;2.40;;;2.30;;
1328;SDS011;658;48.820;9.354;2022-08-21T03:36:31;2.20;;;2.00;;
1328;SDS011;658;48.820;9.354;2022-08-21T03:40:32;2.20;;;2.10;;
1328;SDS011;658;48.820;9.354;2022-08-21T03:44:32;2.10;;;2.00;;
1328;SDS011;658;48.820;9.354;2022-08-21T03:48:34;2.43;;;2.23;;
1328;SDS011;658;48.820;9.354;2022-08-21T03:52:36;2.00;;;1.80;;
1328;SDS011;658;48.820;9.354;2022-08-21T03:56:36;2.20;;;1.90;;
1328;SDS011;658;48.820;9.354;2022-08-21T04:00:37;1.80;;;1.70;;
1328;SDS011;658;48.820;9.354;2022-08-21T04:04:38;2.10;;;2.00;;
1328;SDS011;658;48.820;9.354;2022-08-21T04:08:38;2.07;;;1.87;;
1328;SDS011;658;48.820;9.354;2022-08-21T04:12:40;2.20;;;2.00;;
1328;SDS011;658;48.820;9.354;2022-08-21T04:16:41;1.67;;;1.60;;
1328;SDS011;658;48.820;9.354;2022-08-21T04:20:43;2.20;;;2.00;;
1328;SDS011;658;48.820;9.354;2022-08-21T04:24:46;1.77;;;1.67;;
1328;SDS011;658;48.820;9.354;2022-08-21T04:28:46;1.60;;;1.50;;
1328;SDS011;658;48.820;9.354;2022-08-21T04:32:47;1.73;;;1.63;;
1328;SDS011;658;48.820;9.354;2022-08-21T04:36:50;1.97;;;1.70;;
1328;SDS011;658;48.820;9.354;2022-08-21T04:40:50;1.70;;;1.60;;
1328;SDS011;658;48.820;9.354;2022-08-21T04:44:51;2.07;;;1.87;;
1328;SDS011;658;48.820;9.354;2022-08-21T04:48:52;1.90;;;1.80;;
1328;SDS011;658;48.820;9.354;2022-08-21T04:52:53;1.83;;;1.73;;
1328;SDS011;658;48.820;9.354;2022-08-21T04:56:55;1.80;;;1.70;;
1328;SDS011;658;48.820;9.354;2022-08-21T05:01:03;2.10;;;2.00;;
1328;SDS011;658;48.820;9.354;2022-08-21T05:05:06;2.30;;;2.10;;
1328;SDS011;658;48.820;9.354;2022-08-21T05:09:08;2.50;;;2.30;;
1328;SDS011;658;48.820;9.354;2022-08-21T05:13:12;2.03;;;1.93;;
1328;SDS011;658;48.820;9.354;2022-08-21T05:17:14;2.30;;;2.20;;
1328;SDS011;658;48.820;9.354;2022-08-21T05:21:14;2.33;;;2.00;;
1328;SDS011;658;48.820;9.354;2022-08-21T05:25:15;1.57;;;1.47;;
1328;SDS011;658;48.820;9.354;2022-08-21T05:29:16;1.70;;;1.60;;
1328;SDS011;658;48.820;9.354;2022-08-21T05:33:17;1.90;;;1.80;;
1328;SDS011;658;48.820;9.354;2022-08-21T05:37:17;1.70;;;1.60;;
1328;SDS011;658;48.820;9.354;2022-08-21T05:41:18;1.50;;;1.40;;
1328;SDS011;658;48.820;9.354;2022-08-21T05:45:19;2.07;;;1.93;;
1328;SDS011;658;48.820;9.354;2022-08-21T05:49:21;1.67;;;1.57;;
1328;SDS011;658;48.820;9.354;2022-08-21T05:53:22;2.07;;;1.80;;
1328;SDS011;658;48.820;9.354;2022-08-21T05:57:24;1.83;;;1.73;;
1328;SDS011;658;48.820;9.354;2022-08-21T06:01:25;2.13;;;1.93;;
1328;SDS011;658;48.820;9.354;2022-08-21T06:05:26;2.00;;;1.90;;
1328;SDS011;658;48.820;9.354;2022-08-21T06:09:26;2.20;;;2.10;;
1328;SDS011;658;48.820;9.354;2022-08-21T06:13:27;2.10;;;2.00;;
1328;SDS011;658;48.820;9.354;2022-08-21T06:17:28;2.43;;;2.23;;
1328;SDS011;658;48.820;9.354;2022-08-21T06:21:29;2.07;;;1.97;;
1328;SDS011;658;48.820;9.354;2022-08-21T06:25:30;1.77;;;1.67;;
1328;SDS011;658;48.820;9.354;2022-08-21T06:29:31;2.57;;;1.80;;
1328;SDS011;658;48.820;9.354;2022-08-21T06:33:32;1.90;;;1.80;;
1328;SDS011;658;48.820;9.354;2022-08-21T06:37:32;2.10;;;2.00;;
1328;SDS011;658;48.820;9.354;2022-08-21T06:41:34;2.30;;;2.10;;
1328;SDS011;658;48.820;9.354;2022-08-21T06:45:34;2.10;;;2.00;;
1328;SDS011;658;48.820;9.354;2022-08-21T06:49:36;2.13;;;1.90;;
1328;SDS011;658;48.820;9.354;2022-08-21T06:53:36;2.23;;;2.03;;
1328;SDS011;658;48.820;9.354;2022-08-21T06:57:37;2.40;;;2.20;;
1328;SDS011;658;48.820;9.354;2022-08-21T07:01:37;1.80;;;1.70;;
1328;SDS011;658;48.820;9.354;2022-08-21T07:05:39;1.93;;;1.80;;
1328;SDS011;658;48.820;9.354;2022-08-21T07:09:39;1.83;;;1.73;;
1328;SDS011;658;48.820;9.354;2022-08-21T07:13:40;2.10;;;2.00;;
1328;SDS011;658;48.820;9.354;2022-08-21T07:17:41;2.43;;;2.23;;
1328;SDS011;658;48.820;9.354;2022-08-21T07:21:41;3.00;;;2.30;;
1328;SDS011;658;48.820;9.354;2022-08-21T07:25:42;2.87;;;2.57;;
1328;SDS011;658;48.820;9.354;2022-08-21T07:29:42;2.60;;;2.40;;
1328;SDS011;658;48.820;9.354;2022-08-21T07:33:43;2.53;;;2.30;;
1328;SDS011;658;48.820;9.354;2022-08-21T07:37:44;2.80;;;2.60;;
1328;SDS011;658;48.820;9.354;2022-08-21T07:41:45;2.43;;;2.33;;
1328;SDS011;658;48.820;9.354;2022-08-21T07:45:46;2.57;;;2.47;;
1328;SDS011;658;48.820;9.354;2022-08-21T07:49:47;7.20;;;3.10;;
1328;SDS011;658;48.820;9.354;2022-08-21T07:53:48;3.03;;;2.83;;
1328;SDS011;658;48.820;9.354;2022-08-21T07:57:50;3.00;;;2.80;;
1328;SDS011;658;48.820;9.354;2022-08-21T08:01:51;3.10;;;2.83;;
1328;SDS011;658;48.820;9.354;2022-08-21T08:05:51;6.73;;;3.33;;
1328;SDS011;658;48.820;9.354;2022-08-21T08:09:52;3.33;;;3.03;;
1328;SDS011;658;48.820;9.354;2022-08-21T08:13:53;3.10;;;2.90;;
1328;SDS011;658;48.820;9.354;2022-08-21T08:17:54;3.40;;;3.10;;
1328;SDS011;658;48.820;9.354;2022-08-21T08:21:56;4.80;;;2.97;;
1328;SDS011;658;48.820;9.354;2022-08-21T08:25:56;3.73;;;3.30;;
1328;SDS011;658;48.820;9.354;2022-08-21T08:29:58;4.33;;;3.00;;
1328;SDS011;658;48.820;9.354;2022-08-21T08:33:58;4.20;;;3.57;;
1328;SDS011;658;48.820;9.354;2022-08-21T08:37:59;4.07;;;3.77;;
1328;SDS011;658;48.820;9.354;2022-08-21T08:42:05;4.13;;;3.47;;
1328;SDS011;658;48.820;9.354;2022-08-21T08:46:10;4.33;;;3.60;;
1328;SDS011;658;48.820;9.354;2022-08-21T08:50:19;4.23;;;3.90;;
1328;SDS011;658;48.820;9.354;2022-08-21T08:58:57;4.90;;;4.50;;
1328;SDS011;658;48.820;9.354;2022-08-21T09:03:08;5.83;;;5.23;;
1328;SDS011;658;48.820;9.354;2022-08-21T09:11:15;7.93;;;4.03;;
1328;SDS011;658;48.820;9.354;2022-08-21T09:15:50;5.10;;;4.50;;
1328;SDS011;658;48.820;9.354;2022-08-21T09:24:33;5.23;;;4.83;;
1328;SDS011;658;48.820;9.354;2022-08-21T09:28:40;5.07;;;4.57;;
1328;SDS011;658;48.820;9.354;2022-08-21T09:32:41;5.07;;;4.67;;
1328;SDS011;658;48.820;9.354;2022-08-21T09:40:47;5.57;;;5.00;;
1328;SDS011;658;48.820;9.354;2022-08-21T09:45:06;5.00;;;4.60;;
1328;SDS011;658;48.820;9.354;2022-08-21T09:49:10;5.63;;;4.70;;
1328;SDS011;658;48.820;9.354;2022-08-21T09:53:15;5.33;;;4.40;;
1328;SDS011;658;48.820;9.354;2022-08-21T09:57:26;5.47;;;4.97;;
1328;SDS011;658;48.820;9.354;2022-08-21T10:01:50;4.77;;;4.33;;
1328;SDS011;658;48.820;9.354;2022-08-21T10:05:53;6.27;;;4.50;;
1328;SDS011;658;48.820;9.354;2022-08-21T10:10:16;6.07;;;5.00;;
1328;SDS011;658;48.820;9.354;2022-08-21T10:23:54;4.50;;;4.10;;
1328;SDS011;658;48.820;9.354;2022-08-21T10:28:12;5.10;;;4.13;;
1328;SDS011;658;48.820;9.354;2022-08-21T10:41:16;6.07;;;4.43;;
1328;SDS011;658;48.820;9.354;2022-08-21T10:54:48;5.77;;;4.40;;
1328;SDS011;658;48.820;9.354;2022-08-21T10:59:26;7.97;;;4.07;;
1328;SDS011;658;48.820;9.354;2022-08-21T11:07:32;4.23;;;3.83;;
1328;SDS011;658;48.820;9.354;2022-08-21T11:11:38;4.13;;;3.73;;
1328;SDS011;658;48.820;9.354;2022-08-21T11:24:38;4.70;;;3.73;;
1328;SDS011;658;48.820;9.354;2022-08-21T11:28:47;4.70;;;4.30;;
1328;SDS011;658;48.820;9.354;2022-08-21T11:32:57;3.77;;;3.47;;
1328;SDS011;658;48.820;9.354;2022-08-21T11:37:21;4.43;;;4.03;;
1328;SDS011;658;48.820;9.354;2022-08-21T11:41:31;4.47;;;3.70;;
1328;SDS011;658;48.820;9.354;2022-08-21T11:45:44;4.20;;;3.90;;
1328;SDS011;658;48.820;9.354;2022-08-21T11:49:57;3.93;;;3.53;;
1328;SDS011;658;48.820;9.354;2022-08-21T11:54:20;4.40;;;4.00;;
1328;SDS011;658;48.820;9.354;2022-08-21T11:58:37;3.80;;;3.50;;
1328;SDS011;658;48.820;9.354;2022-08-21T12:02:45;4.17;;;3.77;;
1328;SDS011;658;48.820;9.354;2022-08-21T12:06:56;3.90;;;3.57;;
1328;SDS011;658;48.820;9.354;2022-08-21T12:11:05;3.40;;;3.20;;
1328;SDS011;658;48.820;9.354;2022-08-21T12:23:25;4.23;;;3.07;;
1328;SDS011;658;48.820;9.354;2022-08-21T12:27:45;3.87;;;3.20;;
1328;SDS011;658;48.820;9.354;2022-08-21T12:32:19;3.20;;;2.90;;
1328;SDS011;658;48.820;9.354;2022-08-21T12:36:35;4.00;;;3.00;;
1328;SDS011;658;48.820;9.354;2022-08-21T12:40:50;4.27;;;3.73;;
1328;SDS011;658;48.820;9.354;2022-08-21T12:44:59;3.63;;;3.33;;
1328;SDS011;658;48.820;9.354;2022-08-21T12:49:12;3.77;;;3.47;;
1328;SDS011;658;48.820;9.354;2022-08-21T12:53:23;3.53;;;3.23;;
1328;SDS011;658;48.820;9.354;2022-08-21T12:57:28;3.13;;;2.90;;
1328;SDS011;658;48.820;9.354;2022-08-21T13:01:34;4.20;;;3.80;;
1328;SDS011;658;48.820;9.354;2022-08-21T13:05:45;2.63;;;2.43;;
1328;SDS011;658;48.820;9.354;2022-08-21T13:09:47;3.73;;;3.33;;
1328;SDS011;658;48.820;9.354;2022-08-21T13:13:56;3.20;;;3.00;;
1328;SDS011;658;48.820;9.354;2022-08-21T13:17:57;5.13;;;3.50;;
1328;SDS011;658;48.820;9.354;2022-08-21T13:22:02;3.30;;;3.00;;
1328;SDS011;658;48.820;9.354;2022-08-21T13:26:19;3.53;;;3.10;;
1328;SDS011;658;48.820;9.354;2022-08-21T13:30:22;3.63;;;3.33;;
1328;SDS011;658;48.820;9.354;2022-08-21T13:34:24;3.47;;;3.07;;
1328;SDS011;658;48.820;9.354;2022-08-21T13:38:33;3.07;;;2.83;;
1328;SDS011;658;48.820;9.354;2022-08-21T13:42:35;3.30;;;3.00;;
1328;SDS011;658;48.820;9.354;2022-08-21T13:46:38;3.40;;;3.10;;
1328;SDS011;658;48.820;9.354;2022-08-21T13:50:39;4.00;;;3.60;;
1328;SDS011;658;48.820;9.354;2022-08-21T13:54:41;3.07;;;2.87;;
1328;SDS011;658;48.820;9.354;2022-08-21T13:58:45;3.57;;;3.13;;
1328;SDS011;658;48.820;9.354;2022-08-21T14:02:47;3.73;;;3.40;;
1328;SDS011;658;48.820;9.354;2022-08-21T14:06:51;3.73;;;3.43;;
1328;SDS011;658;48.820;9.354;2022-08-21T14:10:53;3.47;;;3.17;;
1328;SDS011;658;48.820;9.354;2022-08-21T14:14:54;3.50;;;3.20;;
1328;SDS011;658;48.820;9.354;2022-08-21T14:23:01;4.37;;;3.80;;
1328;SDS011;658;48.820;9.354;2022-08-21T14:27:05;3.30;;;3.00;;
1328;SDS011;658;48.820;9.354;2022-08-21T14:31:17;4.40;;;4.00;;
1328;SDS011;658;48.820;9.354;2022-08-21T14:35:20;3.30;;;3.00;;
1328;SDS011;658;48.820;9.354;2022-08-21T14:39:21;3.13;;;2.93;;
1328;SDS011;658;48.820;9.354;2022-08-21T14:43:22;3.90;;;2.80;;
1328;SDS011;658;48.820;9.354;2022-08-21T14:47:25;3.53;;;3.10;;
1328;SDS011;658;48.820;9.354;2022-08-21T14:51:25;3.47;;;3.20;;
1328;SDS011;658;48.820;9.354;2022-08-21T14:55:26;3.50;;;3.20;;
1328;SDS011;658;48.820;9.354;2022-08-21T14:59:27;2.77;;;2.57;;
1328;SDS011;658;48.820;9.354;2022-08-21T15:03:30;3.53;;;3.23;;
1328;SDS011;658;48.820;9.354;2022-08-21T15:07:31;3.10;;;2.83;;
1328;SDS011;658;48.820;9.354;2022-08-21T15:11:32;4.73;;;3.83;;
1328;SDS011;658;48.820;9.354;2022-08-21T15:15:34;3.50;;;3.00;;
1328;SDS011;658;48.820;9.354;2022-08-21T15:19:40;3.30;;;3.00;;
1328;SDS011;658;48.820;9.354;2022-08-21T15:23:41;3.17;;;2.87;;
1328;SDS011;658;48.820;9.354;2022-08-21T15:27:41;3.43;;;3.13;;
1328;SDS011;658;48.820;9.354;2022-08-21T15:31:58;5.00;;;3.10;;
1328;SDS011;658;48.820;9.354;2022-08-21T15:36:00;4.00;;;3.40;;
1328;SDS011;658;48.820;9.354;2022-08-21T15:40:02;3.40;;;3.10;;
1328;SDS011;658;48.820;9.354;2022-08-21T15:44:04;3.83;;;3.33;;
1328;SDS011;658;48.820;9.354;2022-08-21T15:48:08;3.27;;;3.07;;
1328;SDS011;658;48.820;9.354;2022-08-21T15:52:09;3.60;;;3.10;;
1328;SDS011;658;48.820;9.354;2022-08-21T15:56:32;4.10;;;3.20;;
1328;SDS011;658;48.820;9.354;2022-08-21T16:00:35;3.67;;;3.33;;
1328;SDS011;658;48.820;9.354;2022-08-21T16:04:36;3.00;;;2.80;;
1328;SDS011;658;48.820;9.354;2022-08-21T16:08:37;3.60;;;3.30;;
1328;SDS011;658;48.820;9.354;2022-08-21T16:12:38;3.27;;;2.73;;
1328;SDS011;658;48.820;9.354;2022-08-21T16:16:46;3.60;;;2.90;;
1328;SDS011;658;48.820;9.354;2022-08-21T16:20:46;3.20;;;3.00;;
1328;SDS011;658;48.820;9.354;2022-08-21T16:24:47;3.00;;;2.80;;
1328;SDS011;658;48.820;9.354;2022-08-21T16:28:48;4.10;;;3.20;;
1328;SDS011;658;48.820;9.354;2022-08-21T16:32:52;4.43;;;3.20;;
1328;SDS011;658;48.820;9.354;2022-08-21T16:36:53;3.60;;;3.20;;
1328;SDS011;658;48.820;9.354;2022-08-21T16:40:54;3.47;;;2.83;;
1328;SDS011;658;48.820;9.354;2022-08-21T16:44:55;3.40;;;2.87;;
1328;SDS011;658;48.820;9.354;2022-08-21T16:48:56;3.70;;;3.00;;
1328;SDS011;658;48.820;9.354;2022-08-21T16:52:56;2.90;;;2.60;;
1328;SDS011;658;48.820;9.354;2022-08-21T16:56:57;3.20;;;2.40;;
1328;SDS011;658;48.820;9.354;2022-08-21T17:00:59;2.57;;;2.37;;
1328;SDS011;658;48.820;9.354;2022-08-21T17:05:05;2.60;;;2.40;;
1328;SDS011;658;48.820;9.354;2022-08-21T17:09:06;2.93;;;2.73;;
1328;SDS011;658;48.820;9.354;2022-08-21T17:13:06;4.70;;;2.90;;
1328;SDS011;658;48.820;9.354;2022-08-21T17:17:08;3.00;;;2.70;;
1328;SDS011;658;48.820;9.354;2022-08-21T17:21:10;2.97;;;2.70;;
1328;SDS011;658;48.820;9.354;2022-08-21T17:25:10;2.53;;;2.33;;
1328;SDS011;658;48.820;9.354;2022-08-21T17:29:12;3.37;;;2.90;;
1328;SDS011;658;48.820;9.354;2022-08-21T17:33:15;2.80;;;2.60;;
1328;SDS011;658;48.820;9.354;2022-08-21T17:37:17;4.60;;;2.90;;
1328;SDS011;658;48.820;9.354;2022-08-21T17:41:20;2.73;;;2.40;;
1328;SDS011;658;48.820;9.354;2022-08-21T17:45:21;3.10;;;2.80;;
1328;SDS011;658;48.820;9.354;2022-08-21T17:49:22;2.50;;;2.30;;
1328;SDS011;658;48.820;9.354;2022-08-21T17:53:24;3.77;;;2.80;;
1328;SDS011;658;48.820;9.354;2022-08-21T17:57:24;2.93;;;2.73;;
1328;SDS011;658;48.820;9.354;2022-08-21T18:01:28;2.60;;;2.40;;
1328;SDS011;658;48.820;9.354;2022-08-21T18:05:36;2.37;;;2.17;;
1328;SDS011;658;48.820;9.354;2022-08-21T18:09:37;2.97;;;2.77;;
1328;SDS011;658;48.820;9.354;2022-08-21T18:13:38;3.30;;;2.50;;
1328;SDS011;658;48.820;9.354;2022-08-21T18:17:40;3.17;;;2.90;;
1328;SDS011;658;48.820;9.354;2022-08-21T18:21:44;2.67;;;2.47;;
1328;SDS011;658;48.820;9.354;2022-08-21T18:25:46;4.43;;;2.90;;
1328;SDS011;658;48.820;9.354;2022-08-21T18:29:49;3.13;;;2.83;;
1328;SDS011;658;48.820;9.354;2022-08-21T18:33:53;2.80;;;2.60;;
1328;SDS011;658;48.820;9.354;2022-08-21T18:37:54;4.00;;;3.60;;
1328;SDS011;658;48.820;9.354;2022-08-21T18:41:55;4.10;;;3.80;;
1328;SDS011;658;48.820;9.354;2022-08-21T18:45:56;5.17;;;4.77;;
1328;SDS011;658;48.820;9.354;2022-08-21T18:49:57;5.57;;;4.77;;
1328;SDS011;658;48.820;9.354;2022-08-21T18:53:57;5.90;;;5.40;;
1328;SDS011;658;48.820;9.354;2022-08-21T18:57:58;5.50;;;5.10;;
1328;SDS011;658;48.820;9.354;2022-08-21T19:01:59;6.30;;;5.70;;
1328;SDS011;658;48.820;9.354;2022-08-21T19:05:59;5.13;;;4.73;;
1328;SDS011;658;48.820;9.354;2022-08-21T19:10:00;6.23;;;4.10;;
1328;SDS011;658;48.820;9.354;2022-08-21T19:14:02;4.60;;;4.10;;
1328;SDS011;658;48.820;9.354;2022-08-21T19:18:04;6.73;;;4.57;;
1328;SDS011;658;48.820;9.354;2022-08-21T19:22:11;3.83;;;3.53;;
1328;SDS011;658;48.820;9.354;2022-08-21T19:26:12;3.83;;;3.43;;
1328;SDS011;658;48.820;9.354;2022-08-21T19:30:13;6.60;;;3.53;;
1328;SDS011;658;48.820;9.354;2022-08-21T19:38:21;4.03;;;3.63;;
1328;SDS011;658;48.820;9.354;2022-08-21T19:42:22;3.80;;;3.40;;
1328;SDS011;658;48.820;9.354;2022-08-21T19:46:27;3.83;;;3.53;;
1328;SDS011;658;48.820;9.354;2022-08-21T19:50:30;4.80;;;4.20;;
1328;SDS011;658;48.820;9.354;2022-08-21T19:54:31;3.90;;;3.50;;
1328;SDS011;658;48.820;9.354;2022-08-21T19:58:37;4.07;;;3.77;;
1328;SDS011;658;48.820;9.354;2022-08-21T20:02:40;4.43;;;3.80;;
1328;SDS011;658;48.820;9.354;2022-08-21T20:06:43;3.97;;;3.50;;
1328;SDS011;658;48.820;9.354;2022-08-21T20:10:43;4.13;;;3.77;;
1328;SDS011;658;48.820;9.354;2022-08-21T20:14:45;4.13;;;3.80;;
1328;SDS011;658;48.820;9.354;2022-08-21T20:18:47;4.40;;;4.00;;
1328;SDS011;658;48.820;9.354;2022-08-21T20:22:48;4.30;;;3.90;;
1328;SDS011;658;48.820;9.354;2022-08-21T20:26:48;3.80;;;3.50;;
1328;SDS011;658;48.820;9.354;2022-08-21T20:30:49;3.43;;;3.13;;
1328;SDS011;658;48.820;9.354;2022-08-21T20:34:50;3.97;;;3.30;;
1328;SDS011;658;48.820;9.354;2022-08-21T20:38:51;3.90;;;3.50;;
1328;SDS011;658;48.820;9.354;2022-08-21T20:42:52;3.63;;;3.33;;
1328;SDS011;658;48.820;9.354;2022-08-21T20:46:54;4.00;;;3.70;;
1328;SDS011;658;48.820;9.354;2022-08-21T20:51:19;4.07;;;3.70;;
1328;SDS011;658;48.820;9.354;2022-08-21T20:55:34;4.70;;;3.50;;
1328;SDS011;658;48.820;9.354;2022-08-21T21:00:00;4.57;;;4.03;;
1328;SDS011;658;48.820;9.354;2022-08-21T21:04:16;4.20;;;3.80;;
1328;SDS011;658;48.820;9.354;2022-08-21T21:08:41;4.00;;;3.70;;
1328;SDS011;658;48.820;9.354;2022-08-21T21:12:43;6.60;;;3.83;;
1328;SDS011;658;48.820;9.354;2022-08-21T21:16:51;3.97;;;3.67;;
1328;SDS011;658;48.820;9.354;2022-08-21T21:20:58;4.47;;;4.07;;
1328;SDS011;658;48.820;9.354;2022-08-21T21:25:12;4.83;;;3.60;;
1328;SDS011;658;48.820;9.354;2022-08-21T21:29:18;4.00;;;3.67;;
1328;SDS011;658;48.820;9.354;2022-08-21T21:33:22;5.17;;;3.63;;
1328;SDS011;658;48.820;9.354;2022-08-21T21:37:24;3.97;;;3.67;;
1328;SDS011;658;48.820;9.354;2022-08-21T21:41:52;4.00;;;3.60;;
1328;SDS011;658;48.820;9.354;2022-08-21T21:55:02;3.67;;;3.37;;
1328;SDS011;658;48.820;9.354;2022-08-21T22:03:48;3.93;;;3.63;;
1328;SDS011;658;48.820;9.354;2022-08-21T22:12:44;4.47;;;3.83;;
1328;SDS011;658;48.820;9.354;2022-08-21T22:16:53;3.77;;;3.47;;
1328;SDS011;658;48.820;9.354;2022-08-21T22:20:56;3.73;;;3.43;;
1328;SDS011;658;48.820;9.354;2022-08-21T22:25:29;3.70;;;3.40;;
1328;SDS011;658;48.820;9.354;2022-08-21T22:30:08;3.67;;;3.37;;
1328;SDS011;658;48.820;9.354;2022-08-21T22:42:26;3.77;;;3.47;;
1328;SDS011;658;48.820;9.354;2022-08-21T22:46:33;4.27;;;3.87;;
1328;SDS011;658;48.820;9.354;2022-08-21T22:50:47;4.10;;;3.70;;
1328;SDS011;658;48.820;9.354;2022-08-21T23:03:55;3.83;;;3.53;;
1328;SDS011;658;48.820;9.354;2022-08-21T23:08:02;3.73;;;3.43;;
1328;SDS011;658;48.820;9.354;2022-08-21T23:12:24;3.90;;;3.60;;
1328;SDS011;658;48.820;9.354;2022-08-21T23:20:38;4.57;;;3.57;;
1328;SDS011;658;48.820;9.354;2022-08-21T23:24:59;3.90;;;3.60;;
1328;SDS011;658;48.820;9.354;2022-08-21T23:29:25;4.20;;;3.90;;
1328;SDS011;658;48.820;9.354;2022-08-21T23:37:39;4.10;;;3.80;;
1328;SDS011;658;48.820;9.354;2022-08-21T23:46:32;4.50;;;4.10;;
1328;SDS011;658;48.820;9.354;2022-08-21T23:50:47;3.60;;;3.40;;
